SWA2338 KSMF-KSNA
Flight info
| Callsign | SWA2338 |
|---|---|
| Flight time | 1h 6m |
| Altitude | 39000 |
| Route | FTHIL3 FRA REBRG OHSEA3 |
| Aircraft | B737/M-DE2GRSWYZ/LB1 |
Departure
| Time | 2026-05-05 20:28 |
|---|---|
| Airport | Sacramento International Airport (KSMF) |
Arrival
| Time | 2026-05-05 21:35 |
|---|---|
| Airport | John Wayne Orange County International Airport (KSNA) |
| Time | Latitude | Longitude | Altitude | Speed | Heading |
|---|---|---|---|---|---|
| 2026-05-05 19:57 | 38.69619 | -121.59410 | 28 ft | 0 kts | 180° |
| 2026-05-05 20:18 | 38.69621 | -121.59410 | 28 ft | 1 kts | 180° |
| 2026-05-05 20:18 | 38.69639 | -121.59410 | 28 ft | 3 kts | 180° |
| 2026-05-05 20:18 | 38.69659 | -121.59410 | 28 ft | 3 kts | 180° |
| 2026-05-05 20:19 | 38.69678 | -121.59410 | 28 ft | 3 kts | 192° |
| 2026-05-05 20:19 | 38.69693 | -121.59400 | 28 ft | 3 kts | 243° |
| 2026-05-05 20:19 | 38.69698 | -121.59376 | 28 ft | 3 kts | 269° |
| 2026-05-05 20:19 | 38.69698 | -121.59364 | 28 ft | 0 kts | 270° |
| 2026-05-05 20:22 | 38.69698 | -121.59368 | 28 ft | 2 kts | 270° |
| 2026-05-05 20:23 | 38.69698 | -121.59428 | 28 ft | 11 kts | 270° |
| 2026-05-05 20:23 | 38.69699 | -121.59538 | 28 ft | 13 kts | 271° |
| 2026-05-05 20:23 | 38.69700 | -121.59652 | 28 ft | 13 kts | 271° |
| 2026-05-05 20:23 | 38.69702 | -121.59760 | 28 ft | 10 kts | 271° |
| 2026-05-05 20:24 | 38.69710 | -121.59844 | 28 ft | 9 kts | 304° |
| 2026-05-05 20:24 | 38.69771 | -121.59863 | 28 ft | 10 kts | 0° |
| 2026-05-05 20:24 | 38.69847 | -121.59862 | 28 ft | 12 kts | 1° |
| 2026-05-05 20:24 | 38.69945 | -121.59860 | 28 ft | 15 kts | 1° |
| 2026-05-05 20:25 | 38.70055 | -121.59859 | 28 ft | 16 kts | 0° |
| 2026-05-05 20:25 | 38.70162 | -121.59857 | 28 ft | 15 kts | 1° |
| 2026-05-05 20:25 | 38.70266 | -121.59855 | 28 ft | 14 kts | 0° |
| 2026-05-05 20:25 | 38.70363 | -121.59853 | 28 ft | 14 kts | 0° |
| 2026-05-05 20:26 | 38.70457 | -121.59852 | 28 ft | 13 kts | 0° |
| 2026-05-05 20:26 | 38.70548 | -121.59850 | 28 ft | 13 kts | 1° |
| 2026-05-05 20:26 | 38.70636 | -121.59849 | 28 ft | 12 kts | 1° |
| 2026-05-05 20:26 | 38.70703 | -121.59858 | 28 ft | 9 kts | 327° |
| 2026-05-05 20:27 | 38.70720 | -121.59929 | 28 ft | 9 kts | 271° |
| 2026-05-05 20:27 | 38.70721 | -121.60004 | 27 ft | 8 kts | 271° |
| 2026-05-05 20:27 | 38.70720 | -121.60076 | 27 ft | 8 kts | 268° |
| 2026-05-05 20:27 | 38.70692 | -121.60108 | 27 ft | 5 kts | 184° |
| 2026-05-05 20:28 | 38.70628 | -121.60110 | 28 ft | 27 kts | 181° |
| 2026-05-05 20:28 | 38.70160 | -121.60118 | 30 ft | 106 kts | 181° |
| 2026-05-05 20:28 | 38.69200 | -121.60133 | 70 ft | 164 kts | 181° |
| 2026-05-05 20:28 | 38.68076 | -121.60162 | 936 ft | 155 kts | 179° |
| 2026-05-05 20:29 | 38.67041 | -121.59801 | 1673 ft | 165 kts | 147° |
| 2026-05-05 20:29 | 38.66221 | -121.58598 | 1942 ft | 194 kts | 119° |
| 2026-05-05 20:29 | 38.65571 | -121.56966 | 2235 ft | 219 kts | 118° |
| 2026-05-05 20:29 | 38.64777 | -121.55160 | 2468 ft | 244 kts | 120° |
| 2026-05-05 20:30 | 38.63864 | -121.53214 | 2931 ft | 261 kts | 121° |
| 2026-05-05 20:30 | 38.63224 | -121.51888 | 3472 ft | 264 kts | 121° |
| 2026-05-05 20:30 | 38.61919 | -121.49232 | 4608 ft | 269 kts | 121° |
| 2026-05-05 20:30 | 38.61237 | -121.47864 | 5153 ft | 272 kts | 121° |
| 2026-05-05 20:31 | 38.60201 | -121.45806 | 6015 ft | 275 kts | 121° |
| 2026-05-05 20:31 | 38.59168 | -121.43770 | 6879 ft | 278 kts | 120° |
| 2026-05-05 20:31 | 38.58099 | -121.41673 | 7716 ft | 283 kts | 120° |
| 2026-05-05 20:31 | 38.57011 | -121.39549 | 8573 ft | 287 kts | 120° |
| 2026-05-05 20:32 | 38.55903 | -121.37392 | 9502 ft | 292 kts | 120° |
| 2026-05-05 20:32 | 38.54778 | -121.35208 | 10353 ft | 298 kts | 119° |
| 2026-05-05 20:32 | 38.53608 | -121.32932 | 10660 ft | 324 kts | 120° |
| 2026-05-05 20:32 | 38.52322 | -121.30433 | 10956 ft | 346 kts | 120° |
| 2026-05-05 20:33 | 38.50978 | -121.27835 | 11656 ft | 354 kts | 120° |
| 2026-05-05 20:33 | 38.49607 | -121.25197 | 12515 ft | 357 kts | 120° |
| 2026-05-05 20:33 | 38.48224 | -121.22539 | 13370 ft | 361 kts | 120° |
| 2026-05-05 20:33 | 38.46820 | -121.19842 | 14172 ft | 366 kts | 120° |
| 2026-05-05 20:34 | 38.45400 | -121.17117 | 14977 ft | 370 kts | 120° |
| 2026-05-05 20:34 | 38.43974 | -121.14379 | 15831 ft | 372 kts | 119° |
| 2026-05-05 20:34 | 38.42550 | -121.11647 | 16660 ft | 375 kts | 119° |
| 2026-05-05 20:34 | 38.41090 | -121.08849 | 17475 ft | 379 kts | 119° |
| 2026-05-05 20:35 | 38.39618 | -121.06028 | 18291 ft | 384 kts | 119° |
| 2026-05-05 20:35 | 38.38128 | -121.03176 | 18987 ft | 387 kts | 118° |
| 2026-05-05 20:35 | 38.36627 | -121.00306 | 19708 ft | 390 kts | 118° |
| 2026-05-05 20:35 | 38.35131 | -120.97446 | 20412 ft | 393 kts | 118° |
| 2026-05-05 20:36 | 38.33604 | -120.94532 | 21108 ft | 396 kts | 118° |
| 2026-05-05 20:36 | 38.32066 | -120.91598 | 21794 ft | 400 kts | 118° |
| 2026-05-05 20:36 | 38.30512 | -120.88637 | 22466 ft | 403 kts | 118° |
| 2026-05-05 20:36 | 38.28952 | -120.85666 | 23122 ft | 407 kts | 118° |
| 2026-05-05 20:37 | 38.27366 | -120.82651 | 23740 ft | 410 kts | 118° |
| 2026-05-05 20:37 | 38.25792 | -120.79659 | 24278 ft | 412 kts | 118° |
| 2026-05-05 20:37 | 38.24192 | -120.76623 | 24886 ft | 413 kts | 118° |
| 2026-05-05 20:37 | 38.22593 | -120.73591 | 25499 ft | 413 kts | 117° |
| 2026-05-05 20:38 | 38.20983 | -120.70542 | 26095 ft | 414 kts | 117° |
| 2026-05-05 20:38 | 38.19372 | -120.67492 | 26656 ft | 415 kts | 117° |
| 2026-05-05 20:38 | 38.17777 | -120.64473 | 27193 ft | 417 kts | 116° |
| 2026-05-05 20:38 | 38.16156 | -120.61408 | 27723 ft | 418 kts | 116° |
| 2026-05-05 20:39 | 38.14527 | -120.58333 | 28237 ft | 419 kts | 116° |
| 2026-05-05 20:39 | 38.12892 | -120.55247 | 28722 ft | 422 kts | 116° |
| 2026-05-05 20:39 | 38.11244 | -120.52142 | 29187 ft | 423 kts | 116° |
| 2026-05-05 20:39 | 38.09612 | -120.49068 | 29641 ft | 425 kts | 115° |
| 2026-05-05 20:40 | 38.07950 | -120.45939 | 30094 ft | 426 kts | 115° |
| 2026-05-05 20:40 | 38.06289 | -120.42822 | 30443 ft | 428 kts | 115° |
| 2026-05-05 20:40 | 38.04590 | -120.39680 | 30700 ft | 433 kts | 116° |
| 2026-05-05 20:40 | 38.02866 | -120.36576 | 30982 ft | 436 kts | 116° |
| 2026-05-05 20:41 | 38.01104 | -120.33434 | 31368 ft | 436 kts | 116° |
| 2026-05-05 20:41 | 37.99345 | -120.30297 | 31850 ft | 433 kts | 116° |
| 2026-05-05 20:41 | 37.97609 | -120.27190 | 32272 ft | 432 kts | 116° |
| 2026-05-05 20:41 | 37.95874 | -120.24079 | 32633 ft | 433 kts | 117° |
| 2026-05-05 20:42 | 37.93841 | -120.21183 | 32940 ft | 451 kts | 131° |
| 2026-05-05 20:42 | 37.91228 | -120.18917 | 33298 ft | 462 kts | 139° |
| 2026-05-05 20:42 | 37.88453 | -120.16850 | 33759 ft | 462 kts | 141° |
| 2026-05-05 20:42 | 37.85650 | -120.14831 | 34114 ft | 462 kts | 141° |
| 2026-05-05 20:43 | 37.82873 | -120.12835 | 34354 ft | 464 kts | 141° |
| 2026-05-05 20:43 | 37.80069 | -120.10803 | 34625 ft | 464 kts | 141° |
| 2026-05-05 20:43 | 37.77266 | -120.08752 | 34947 ft | 463 kts | 141° |
| 2026-05-05 20:43 | 37.74485 | -120.06700 | 35251 ft | 462 kts | 141° |
| 2026-05-05 20:44 | 37.71710 | -120.04642 | 35522 ft | 463 kts | 141° |
| 2026-05-05 20:44 | 37.68960 | -120.02598 | 35775 ft | 464 kts | 141° |
| 2026-05-05 20:44 | 37.66176 | -120.00530 | 36094 ft | 463 kts | 141° |
| 2026-05-05 20:44 | 37.63403 | -119.98471 | 36366 ft | 463 kts | 141° |
| 2026-05-05 20:45 | 37.57833 | -119.94342 | 36799 ft | 464 kts | 142° |
| 2026-05-05 20:45 | 37.55066 | -119.92294 | 36977 ft | 465 kts | 142° |
| 2026-05-05 20:45 | 37.52276 | -119.90232 | 37261 ft | 464 kts | 142° |
| 2026-05-05 20:46 | 37.49489 | -119.88177 | 37553 ft | 463 kts | 142° |
| 2026-05-05 20:46 | 37.46693 | -119.86115 | 37770 ft | 464 kts | 143° |
| 2026-05-05 20:46 | 37.43936 | -119.84082 | 37965 ft | 465 kts | 143° |
| 2026-05-05 20:46 | 37.41139 | -119.82022 | 38199 ft | 465 kts | 143° |
| 2026-05-05 20:47 | 37.38334 | -119.79958 | 38447 ft | 464 kts | 143° |
| 2026-05-05 20:47 | 37.35540 | -119.77904 | 38647 ft | 465 kts | 143° |
| 2026-05-05 20:47 | 37.32769 | -119.75870 | 38811 ft | 466 kts | 144° |
| 2026-05-05 20:47 | 37.29972 | -119.73817 | 39003 ft | 465 kts | 144° |
| 2026-05-05 20:48 | 37.24377 | -119.69716 | 39045 ft | 466 kts | 144° |
| 2026-05-05 20:48 | 37.18747 | -119.65596 | 39046 ft | 467 kts | 144° |
| 2026-05-05 20:49 | 37.13142 | -119.61503 | 39047 ft | 468 kts | 145° |
| 2026-05-05 20:49 | 37.10123 | -119.59867 | 39030 ft | 478 kts | 162° |
| 2026-05-05 20:49 | 37.06801 | -119.59346 | 39048 ft | 485 kts | 176° |
| 2026-05-05 20:50 | 37.00025 | -119.59512 | 39054 ft | 487 kts | 179° |
| 2026-05-05 20:50 | 36.93287 | -119.59762 | 39056 ft | 488 kts | 178° |
| 2026-05-05 20:51 | 36.86475 | -119.59938 | 39053 ft | 488 kts | 178° |
| 2026-05-05 20:51 | 36.79682 | -119.60064 | 39059 ft | 488 kts | 178° |
| 2026-05-05 20:52 | 36.72916 | -119.60179 | 39049 ft | 488 kts | 178° |
| 2026-05-05 20:52 | 36.66129 | -119.60297 | 39053 ft | 488 kts | 178° |
| 2026-05-05 20:53 | 36.59331 | -119.60418 | 39054 ft | 487 kts | 178° |
| 2026-05-05 20:53 | 36.52529 | -119.60539 | 39061 ft | 487 kts | 179° |
| 2026-05-05 20:54 | 36.45760 | -119.60659 | 39073 ft | 486 kts | 179° |
| 2026-05-05 20:54 | 36.39042 | -119.60779 | 39073 ft | 485 kts | 179° |
| 2026-05-05 20:55 | 36.32284 | -119.60898 | 39076 ft | 485 kts | 179° |
| 2026-05-05 20:55 | 36.25549 | -119.61017 | 39077 ft | 484 kts | 179° |
| 2026-05-05 20:56 | 36.18805 | -119.61136 | 39070 ft | 484 kts | 179° |
| 2026-05-05 20:56 | 36.12061 | -119.61255 | 39068 ft | 483 kts | 179° |
| 2026-05-05 20:57 | 36.05341 | -119.61373 | 39064 ft | 483 kts | 180° |
| 2026-05-05 20:57 | 35.98663 | -119.61492 | 39066 ft | 483 kts | 180° |
| 2026-05-05 20:58 | 35.91964 | -119.62482 | 39064 ft | 484 kts | 190° |
| 2026-05-05 20:58 | 35.85370 | -119.64016 | 39061 ft | 484 kts | 190° |
| 2026-05-05 20:59 | 35.78723 | -119.65447 | 39052 ft | 485 kts | 189° |
| 2026-05-05 20:59 | 35.72051 | -119.66788 | 39059 ft | 485 kts | 189° |
| 2026-05-05 21:00 | 35.65364 | -119.67391 | 39058 ft | 482 kts | 169° |
| 2026-05-05 21:00 | 35.62168 | -119.66251 | 39056 ft | 478 kts | 154° |
| 2026-05-05 21:00 | 35.59137 | -119.64579 | 39078 ft | 477 kts | 153° |
| 2026-05-05 21:01 | 35.53102 | -119.61111 | 39059 ft | 478 kts | 153° |
| 2026-05-05 21:01 | 35.47083 | -119.57702 | 39062 ft | 480 kts | 154° |
| 2026-05-05 21:02 | 35.40982 | -119.54319 | 39063 ft | 481 kts | 154° |
| 2026-05-05 21:02 | 35.34849 | -119.50950 | 39056 ft | 481 kts | 154° |
| 2026-05-05 21:03 | 35.28777 | -119.47620 | 39055 ft | 481 kts | 155° |
| 2026-05-05 21:03 | 35.22658 | -119.44266 | 39055 ft | 480 kts | 155° |
| 2026-05-05 21:04 | 35.16567 | -119.40932 | 39059 ft | 479 kts | 155° |
| 2026-05-05 21:04 | 35.10486 | -119.37609 | 39054 ft | 478 kts | 155° |
| 2026-05-05 21:05 | 35.04418 | -119.34297 | 39058 ft | 477 kts | 156° |
| 2026-05-05 21:05 | 34.98369 | -119.31002 | 38877 ft | 480 kts | 156° |
| 2026-05-05 21:06 | 34.95320 | -119.29343 | 38637 ft | 479 kts | 156° |
| 2026-05-05 21:06 | 34.92279 | -119.27690 | 38365 ft | 476 kts | 156° |
| 2026-05-05 21:06 | 34.89249 | -119.26044 | 38097 ft | 476 kts | 156° |
| 2026-05-05 21:06 | 34.86215 | -119.24398 | 37836 ft | 476 kts | 156° |
| 2026-05-05 21:07 | 34.83224 | -119.22775 | 37573 ft | 476 kts | 156° |
| 2026-05-05 21:07 | 34.80193 | -119.21132 | 37305 ft | 476 kts | 156° |
| 2026-05-05 21:07 | 34.77157 | -119.19488 | 37057 ft | 476 kts | 156° |
| 2026-05-05 21:07 | 34.74129 | -119.17849 | 36575 ft | 476 kts | 155° |
| 2026-05-05 21:08 | 34.71140 | -119.16114 | 35906 ft | 475 kts | 152° |
| 2026-05-05 21:08 | 34.68208 | -119.14245 | 35148 ft | 477 kts | 150° |
| 2026-05-05 21:08 | 34.65282 | -119.12322 | 34357 ft | 480 kts | 150° |
| 2026-05-05 21:08 | 34.62322 | -119.10392 | 33424 ft | 483 kts | 150° |
| 2026-05-05 21:09 | 34.59342 | -119.08486 | 32572 ft | 484 kts | 150° |
| 2026-05-05 21:09 | 34.56413 | -119.06629 | 31994 ft | 478 kts | 150° |
| 2026-05-05 21:09 | 34.53481 | -119.04743 | 31400 ft | 473 kts | 149° |
| 2026-05-05 21:09 | 34.50582 | -119.02859 | 30806 ft | 469 kts | 149° |
| 2026-05-05 21:10 | 34.47720 | -119.01000 | 30235 ft | 464 kts | 149° |
| 2026-05-05 21:10 | 34.44875 | -118.99159 | 29538 ft | 461 kts | 149° |
| 2026-05-05 21:10 | 34.42071 | -118.97324 | 28842 ft | 456 kts | 149° |
| 2026-05-05 21:10 | 34.39310 | -118.95489 | 28225 ft | 450 kts | 149° |
| 2026-05-05 21:11 | 34.36584 | -118.93670 | 27616 ft | 445 kts | 149° |
| 2026-05-05 21:11 | 34.33920 | -118.91894 | 27044 ft | 440 kts | 149° |
| 2026-05-05 21:11 | 34.31246 | -118.90116 | 26452 ft | 436 kts | 149° |
| 2026-05-05 21:11 | 34.28594 | -118.88356 | 25868 ft | 432 kts | 149° |
| 2026-05-05 21:12 | 34.25972 | -118.86619 | 25299 ft | 428 kts | 150° |
| 2026-05-05 21:12 | 34.23349 | -118.84889 | 24722 ft | 425 kts | 151° |
| 2026-05-05 21:12 | 34.20666 | -118.83493 | 24123 ft | 425 kts | 161° |
| 2026-05-05 21:12 | 34.17843 | -118.82416 | 23519 ft | 422 kts | 163° |
| 2026-05-05 21:13 | 34.15060 | -118.81417 | 22869 ft | 420 kts | 163° |
| 2026-05-05 21:13 | 34.12275 | -118.80379 | 22258 ft | 415 kts | 162° |
| 2026-05-05 21:13 | 34.09538 | -118.79313 | 21689 ft | 411 kts | 162° |
| 2026-05-05 21:13 | 34.06834 | -118.78243 | 21102 ft | 406 kts | 162° |
| 2026-05-05 21:14 | 34.04150 | -118.77193 | 20540 ft | 402 kts | 162° |
| 2026-05-05 21:14 | 34.01532 | -118.76179 | 19999 ft | 398 kts | 162° |
| 2026-05-05 21:14 | 33.98911 | -118.75167 | 19429 ft | 394 kts | 163° |
| 2026-05-05 21:14 | 33.96307 | -118.74161 | 18880 ft | 390 kts | 163° |
| 2026-05-05 21:15 | 33.93729 | -118.73164 | 18333 ft | 386 kts | 163° |
| 2026-05-05 21:15 | 33.91179 | -118.72179 | 17707 ft | 383 kts | 163° |
| 2026-05-05 21:15 | 33.88674 | -118.71212 | 17104 ft | 379 kts | 163° |
| 2026-05-05 21:15 | 33.86173 | -118.70247 | 16541 ft | 375 kts | 163° |
| 2026-05-05 21:16 | 33.83689 | -118.69288 | 15982 ft | 372 kts | 163° |
| 2026-05-05 21:16 | 33.82096 | -118.68673 | 15627 ft | 369 kts | 163° |
| 2026-05-05 21:16 | 33.78863 | -118.67427 | 14913 ft | 365 kts | 163° |
| 2026-05-05 21:16 | 33.76454 | -118.66500 | 14380 ft | 362 kts | 163° |
| 2026-05-05 21:17 | 33.74052 | -118.65648 | 13883 ft | 358 kts | 170° |
| 2026-05-05 21:17 | 33.71617 | -118.65247 | 13450 ft | 350 kts | 176° |
| 2026-05-05 21:17 | 33.69980 | -118.65090 | 13158 ft | 347 kts | 177° |
| 2026-05-05 21:17 | 33.67615 | -118.64864 | 12751 ft | 344 kts | 176° |
| 2026-05-05 21:18 | 33.65228 | -118.64596 | 12352 ft | 343 kts | 175° |
| 2026-05-05 21:18 | 33.62855 | -118.64300 | 11967 ft | 343 kts | 173° |
| 2026-05-05 21:18 | 33.60590 | -118.63425 | 11562 ft | 345 kts | 150° |
| 2026-05-05 21:18 | 33.58753 | -118.61604 | 11197 ft | 343 kts | 129° |
| 2026-05-05 21:19 | 33.57511 | -118.59184 | 10823 ft | 336 kts | 116° |
| 2026-05-05 21:19 | 33.56467 | -118.56694 | 10437 ft | 330 kts | 114° |
| 2026-05-05 21:19 | 33.55451 | -118.54241 | 10058 ft | 325 kts | 115° |
| 2026-05-05 21:19 | 33.54445 | -118.51862 | 9937 ft | 311 kts | 115° |
| 2026-05-05 21:20 | 33.53490 | -118.49640 | 9912 ft | 295 kts | 115° |
| 2026-05-05 21:20 | 33.52568 | -118.47498 | 9737 ft | 285 kts | 113° |
| 2026-05-05 21:20 | 33.52091 | -118.45237 | 9384 ft | 278 kts | 91° |
| 2026-05-05 21:20 | 33.52037 | -118.42927 | 9029 ft | 276 kts | 89° |
| 2026-05-05 21:21 | 33.51998 | -118.40636 | 8680 ft | 274 kts | 89° |
| 2026-05-05 21:21 | 33.51949 | -118.38358 | 8327 ft | 272 kts | 90° |
| 2026-05-05 21:21 | 33.51894 | -118.36095 | 7987 ft | 271 kts | 90° |
| 2026-05-05 21:21 | 33.51846 | -118.33868 | 7643 ft | 269 kts | 87° |
| 2026-05-05 21:22 | 33.52238 | -118.31708 | 7285 ft | 265 kts | 68° |
| 2026-05-05 21:22 | 33.52914 | -118.29662 | 6976 ft | 263 kts | 67° |
| 2026-05-05 21:22 | 33.53586 | -118.27630 | 6635 ft | 262 kts | 68° |
| 2026-05-05 21:22 | 33.54248 | -118.25605 | 6292 ft | 260 kts | 68° |
| 2026-05-05 21:23 | 33.54896 | -118.23598 | 6121 ft | 252 kts | 68° |
| 2026-05-05 21:23 | 33.55505 | -118.21699 | 6025 ft | 242 kts | 68° |
| 2026-05-05 21:23 | 33.56103 | -118.19828 | 5921 ft | 232 kts | 68° |
| 2026-05-05 21:23 | 33.56668 | -118.18067 | 5759 ft | 224 kts | 68° |
| 2026-05-05 21:24 | 33.57388 | -118.16459 | 5612 ft | 215 kts | 56° |
| 2026-05-05 21:24 | 33.58227 | -118.14969 | 5218 ft | 216 kts | 55° |
| 2026-05-05 21:24 | 33.59089 | -118.13476 | 5019 ft | 219 kts | 55° |
| 2026-05-05 21:24 | 33.59960 | -118.11957 | 4991 ft | 221 kts | 55° |
| 2026-05-05 21:25 | 33.60821 | -118.10443 | 4969 ft | 218 kts | 56° |
| 2026-05-05 21:25 | 33.61656 | -118.08965 | 4958 ft | 216 kts | 56° |
| 2026-05-05 21:25 | 33.62502 | -118.07462 | 4966 ft | 218 kts | 56° |
| 2026-05-05 21:25 | 33.63347 | -118.05952 | 4970 ft | 218 kts | 56° |
| 2026-05-05 21:26 | 33.64193 | -118.04439 | 4968 ft | 218 kts | 56° |
| 2026-05-05 21:26 | 33.65040 | -118.02919 | 4999 ft | 218 kts | 56° |
| 2026-05-05 21:26 | 33.65884 | -118.01403 | 4998 ft | 218 kts | 56° |
| 2026-05-05 21:26 | 33.66728 | -117.99885 | 4997 ft | 218 kts | 56° |
| 2026-05-05 21:27 | 33.67573 | -117.98365 | 5002 ft | 219 kts | 56° |
| 2026-05-05 21:27 | 33.68408 | -117.96862 | 5002 ft | 218 kts | 56° |
| 2026-05-05 21:27 | 33.69245 | -117.95354 | 4846 ft | 215 kts | 56° |
| 2026-05-05 21:27 | 33.70156 | -117.93935 | 4450 ft | 215 kts | 37° |
| 2026-05-05 21:28 | 33.71447 | -117.93059 | 4249 ft | 214 kts | 26° |
| 2026-05-05 21:28 | 33.72797 | -117.92247 | 3994 ft | 219 kts | 25° |
| 2026-05-05 21:28 | 33.74186 | -117.91425 | 3751 ft | 223 kts | 24° |
| 2026-05-05 21:28 | 33.75563 | -117.90612 | 3489 ft | 222 kts | 24° |
| 2026-05-05 21:29 | 33.76949 | -117.89810 | 3248 ft | 220 kts | 23° |
| 2026-05-05 21:29 | 33.78328 | -117.89035 | 2979 ft | 216 kts | 22° |
| 2026-05-05 21:29 | 33.79665 | -117.88304 | 2749 ft | 210 kts | 23° |
| 2026-05-05 21:29 | 33.80969 | -117.87575 | 2548 ft | 204 kts | 22° |
| 2026-05-05 21:30 | 33.82232 | -117.86793 | 2328 ft | 207 kts | 38° |
| 2026-05-05 21:30 | 33.83006 | -117.85370 | 2207 ft | 206 kts | 78° |
| 2026-05-05 21:30 | 33.82926 | -117.83702 | 2195 ft | 198 kts | 112° |
| 2026-05-05 21:30 | 33.82444 | -117.82162 | 2186 ft | 196 kts | 116° |
| 2026-05-05 21:31 | 33.81622 | -117.80925 | 2180 ft | 185 kts | 154° |
| 2026-05-05 21:31 | 33.80436 | -117.80462 | 2194 ft | 179 kts | 172° |
| 2026-05-05 21:31 | 33.79231 | -117.80176 | 2191 ft | 179 kts | 184° |
| 2026-05-05 21:31 | 33.78057 | -117.80471 | 2187 ft | 166 kts | 203° |
| 2026-05-05 21:32 | 33.77011 | -117.80959 | 2042 ft | 158 kts | 206° |
| 2026-05-05 21:32 | 33.76027 | -117.81507 | 1837 ft | 152 kts | 210° |
| 2026-05-05 21:32 | 33.75123 | -117.82075 | 1638 ft | 145 kts | 211° |
| 2026-05-05 21:32 | 33.74272 | -117.82619 | 1495 ft | 131 kts | 210° |
| 2026-05-05 21:33 | 33.73500 | -117.83106 | 1329 ft | 118 kts | 211° |
| 2026-05-05 21:33 | 33.72755 | -117.83599 | 1092 ft | 127 kts | 211° |
| 2026-05-05 21:33 | 33.71980 | -117.84106 | 961 ft | 126 kts | 209° |
| 2026-05-05 21:33 | 33.71184 | -117.84586 | 755 ft | 128 kts | 211° |
| 2026-05-05 21:34 | 33.70410 | -117.85086 | 587 ft | 125 kts | 209° |
| 2026-05-05 21:34 | 33.69644 | -117.85574 | 399 ft | 124 kts | 210° |
| 2026-05-05 21:34 | 33.68900 | -117.86050 | 266 ft | 123 kts | 208° |
| 2026-05-05 21:34 | 33.68132 | -117.86529 | 95 ft | 125 kts | 210° |
| 2026-05-05 21:35 | 33.67445 | -117.86966 | 54 ft | 72 kts | 208° |
| 2026-05-05 21:35 | 33.67179 | -117.87133 | 52 ft | 35 kts | 207° |
| 2026-05-05 21:35 | 33.67052 | -117.87213 | 56 ft | 11 kts | 207° |
| 2026-05-05 21:35 | 33.66981 | -117.87224 | 53 ft | 10 kts | 163° |
| 2026-05-05 21:36 | 33.66924 | -117.87171 | 52 ft | 12 kts | 129° |
| 2026-05-05 21:36 | 33.66922 | -117.87085 | 48 ft | 11 kts | 46° |
| 2026-05-05 21:36 | 33.66977 | -117.87028 | 50 ft | 10 kts | 40° |
| 2026-05-05 21:36 | 33.67031 | -117.86972 | 50 ft | 10 kts | 40° |
| 2026-05-05 21:37 | 33.67083 | -117.86919 | 49 ft | 10 kts | 40° |
| 2026-05-05 21:37 | 33.67135 | -117.86869 | 50 ft | 10 kts | 36° |
| 2026-05-05 21:37 | 33.67197 | -117.86824 | 48 ft | 12 kts | 28° |
| 2026-05-05 21:37 | 33.67273 | -117.86774 | 50 ft | 12 kts | 32° |
| 2026-05-05 21:38 | 33.67333 | -117.86702 | 50 ft | 12 kts | 39° |
| 2026-05-05 21:38 | 33.67406 | -117.86653 | 50 ft | 12 kts | 27° |
| 2026-05-05 21:38 | 33.67474 | -117.86611 | 49 ft | 9 kts | 27° |
| 2026-05-05 21:38 | 33.67525 | -117.86579 | 50 ft | 8 kts | 27° |
| 2026-05-05 21:39 | 33.67559 | -117.86539 | 50 ft | 5 kts | 85° |
| 2026-05-05 21:39 | 33.67547 | -117.86511 | 46 ft | 3 kts | 118° |
| 2026-05-05 21:39 | 33.67537 | -117.86489 | 49 ft | 2 kts | 118° |
| 2026-05-05 21:39 | 33.67535 | -117.86485 | 49 ft | 0 kts | 118° |